This is the latest recevied weather packets stored in our database for station/object N0EDB-13. If no packets are shown the sender has not sent any weather packets the latest 10 day(s).
| Time | Temp. | Humidity | Pressure | Rain* | Wind** | Luminosity | Snow |
|---|---|---|---|---|---|---|---|
| 1777430210 | 12.78° C | 36% | 1499.6 hPa | 0 mm | - | 0 W/m² | - |
| 1777429909 | 12.78° C | 35% | 1499.2 hPa | 0 mm | - | 0 W/m² | - |
| 1777429608 | 12.78° C | 35% | 1498.6 hPa | 0 mm | - | 0 W/m² | - |
| 1777429307 | 12.78° C | 35% | 1498.1 hPa | 0 mm | - | 0 W/m² | - |
| 1777429006 | 12.78° C | 35% | 1497.7 hPa | 0 mm | - | 0 W/m² | - |
| 1777428705 | 12.78° C | 33% | 1497.1 hPa | 0 mm | - | 0 W/m² | - |
| 1777428405 | 13.33° C | 33% | 1496.3 hPa | 0 mm | - | 0 W/m² | - |
| 1777428105 | 13.33° C | 33% | 1495.9 hPa | 0 mm | - | 1 W/m² | - |
| 1777427804 | 13.33° C | 32% | 1495.4 hPa | 0 mm | - | 1 W/m² | - |
| 1777427504 | 13.33° C | 33% | 1494.8 hPa | 0 mm | - | 2 W/m² | - |
| 1777427203 | 13.89° C | 34% | 1493.8 hPa | 0 mm | - | 5 W/m² | - |
| 1777426903 | 13.89° C | 33% | 1493 hPa | 0 mm | - | 9 W/m² | - |
| 1777426602 | 14.44° C | 33% | 1492.3 hPa | 0 mm | - | 20 W/m² | - |
| 1777426301 | 14.44° C | 34% | 1491.5 hPa | 0 mm | - | 22 W/m² | - |
| 1777426001 | 15° C | 32% | 1490.4 hPa | 0 mm | - | 30 W/m² | - |
| 1777425699 | 15° C | 34% | 1489.5 hPa | 0 mm | - | 30 W/m² | - |
| 1777425399 | 15.56° C | 32% | 1487.5 hPa | 0 mm | - | 26 W/m² | - |
| 1777425098 | 16.11° C | 31% | 1485.9 hPa | 0 mm | - | 49 W/m² | - |
| 1777424798 | 16.11° C | 28% | 1486.2 hPa | 0 mm | - | 82 W/m² | - |
| 1777424497 | 15.56° C | 29% | 1487.4 hPa | 0 mm | - | 114 W/m² | - |
| 1777424195 | 15.56° C | 30% | 1487.8 hPa | 0 mm | - | 67 W/m² | - |
| 1777423894 | 15.56° C | 30% | 1487.1 hPa | 0 mm | - | 83 W/m² | - |
| 1777423594 | 15.56° C | 31% | 1486.6 hPa | 0 mm | - | 100 W/m² | - |
| 1777423293 | 16.11° C | 30% | 1485.2 hPa | 0 mm | - | 98 W/m² | - |
| 1777422993 | 16.67° C | 28% | 1483.9 hPa | 0 mm | - | 208 W/m² | - |
* Rain latest hour (hover to see other rain measurements)
** Current wind speed in m/s (hover to see current wind gust speed)